Time;durP1;ratioP1;P1;durP2;ratioP2;P2;SDS_P1;SDS_P2;PMS_P1;PMS_P2;Temp;Humidity;BMP_temperature;BMP_pressure;BME280_temperature;BME280_humidity;BME280_pressure;Samples;Min_cycle;Max_cycle;Signal;HPM_P1;HPM_P2
2023/05/23 00:02:33;;;;;;;9.60;6.60;;;;;;;9.75;68.56;99753.04;218271;1257;139729;-68
2023/05/23 00:07:38;;;;;;;16.80;7.30;;;;;;;9.67;68.68;99753.08;220346;1255;139631;-68
2023/05/23 00:12:43;;;;;;;12.90;7.10;;;;;;;9.64;69.17;99744.77;219689;1257;140549;-68
2023/05/23 00:17:48;;;;;;;9.30;7.60;;;;;;;9.62;69.02;99738.21;220370;1255;140221;-71
2023/05/23 00:22:57;;;;;;;14.30;8.70;;;;;;;9.58;69.08;99741.95;219846;1257;141423;-68
2023/05/23 00:28:03;;;;;;;15.60;10.40;;;;;;;9.56;69.29;99739.33;220484;1256;224083;-70
2023/05/23 00:33:08;;;;;;;14.60;10.40;;;;;;;9.56;69.45;99738.98;219631;1257;140698;-68
2023/05/23 00:38:13;;;;;;;13.00;9.50;;;;;;;9.54;69.37;99742.48;219820;1257;140540;-69
2023/05/23 00:43:19;;;;;;;12.30;9.10;;;;;;;9.52;69.69;99738.48;218430;1257;141410;-68
2023/05/23 00:48:27;;;;;;;15.10;9.00;;;;;;;9.47;69.52;99736.19;218153;1257;140555;-68
2023/05/23 00:53:33;;;;;;;12.20;9.00;;;;;;;9.36;69.50;99734.38;219986;1257;140627;-69
2023/05/23 00:58:39;;;;;;;14.90;9.00;;;;;;;9.29;69.85;99740.45;218298;1257;140755;-68
2023/05/23 01:03:44;;;;;;;11.40;8.10;;;;;;;9.24;70.04;99741.13;218715;1256;140517;-69
2023/05/23 01:08:50;;;;;;;10.50;8.80;;;;;;;9.18;70.11;99740.73;218222;1257;140021;-69
2023/05/23 01:14:18;;;;;;;13.10;9.70;;;;;;;9.11;70.40;99739.77;218446;1257;140218;-68
2023/05/23 01:19:29;;;;;;;10.50;8.70;;;;;;;9.08;70.42;99736.65;218542;1256;139508;-68
2023/05/23 01:24:53;;;;;;;12.50;8.30;;;;;;;9.00;70.51;99736.38;218374;1257;139821;-68
2023/05/23 01:30:01;;;;;;;12.70;8.60;;;;;;;8.95;70.97;99733.79;218673;1258;140983;-68
2023/05/23 01:35:06;;;;;;;10.50;8.60;;;;;;;8.90;70.92;99732.23;218359;1257;139909;-66
2023/05/23 01:40:11;;;;;;;10.60;8.60;;;;;;;8.84;71.43;99730.75;219106;1258;140516;-67
2023/05/23 01:45:16;;;;;;;14.30;10.00;;;;;;;8.83;71.60;99723.33;218128;1258;140096;-67
2023/05/23 01:50:22;;;;;;;9.80;7.10;;;;;;;8.80;71.63;99720.53;219032;1257;141251;-68
2023/05/23 01:55:28;;;;;;;16.90;11.90;;;;;;;8.73;71.61;99718.98;219327;1256;139942;-67
2023/05/23 02:00:32;;;;;;;18.40;10.00;;;;;;;8.65;71.82;99711.50;218855;1257;140742;-67
2023/05/23 02:05:37;;;;;;;14.30;8.70;;;;;;;8.61;71.77;99710.52;220375;1256;139956;-67
2023/05/23 02:10:41;;;;;;;11.40;8.50;;;;;;;8.54;72.14;99701.88;218007;1257;140905;-67
2023/05/23 02:15:47;;;;;;;16.50;9.90;;;;;;;8.52;72.43;99699.73;220573;1255;140680;-68
2023/05/23 02:20:51;;;;;;;9.30;7.50;;;;;;;8.49;71.98;99697.44;220491;1256;140079;-67
2023/05/23 02:25:56;;;;;;;7.80;6.60;;;;;;;8.49;72.23;99694.13;220491;1256;141685;-69
2023/05/23 02:31:01;;;;;;;9.10;7.10;;;;;;;8.47;72.47;99689.29;220496;1256;140513;-68
2023/05/23 02:36:10;;;;;;;8.50;7.10;;;;;;;8.43;72.09;99688.34;217963;1257;139547;-67
2023/05/23 02:41:15;;;;;;;9.30;7.80;;;;;;;8.38;72.42;99684.67;219430;1257;139294;-67
2023/05/23 02:46:20;;;;;;;10.50;7.60;;;;;;;8.35;72.37;99680.21;219144;1257;139994;-66
2023/05/23 02:51:25;;;;;;;8.50;6.80;;;;;;;8.32;72.90;99677.58;219001;1256;140121;-67
2023/05/23 02:56:30;;;;;;;10.60;7.60;;;;;;;8.28;72.75;99675.42;218574;1256;140583;-67
2023/05/23 03:01:36;;;;;;;9.40;7.50;;;;;;;8.26;72.94;99668.40;218379;1257;140612;-67
2023/05/23 03:06:43;;;;;;;12.60;8.30;;;;;;;8.26;73.17;99664.91;218440;1256;140989;-67
2023/05/23 03:11:48;;;;;;;14.80;8.90;;;;;;;8.34;73.44;99666.73;218272;1257;139905;-68
2023/05/23 03:16:53;;;;;;;10.10;8.70;;;;;;;8.39;73.40;99668.23;218042;1257;139887;-68
2023/05/23 03:21:59;;;;;;;9.30;7.70;;;;;;;8.45;73.78;99663.31;217714;1256;1462880;-68
2023/05/23 03:27:03;;;;;;;17.10;8.70;;;;;;;8.59;73.63;99661.09;217904;1256;139945;-68
2023/05/23 03:32:07;;;;;;;11.00;7.40;;;;;;;8.68;73.78;99660.16;219085;1257;140608;-68
2023/05/23 03:37:11;;;;;;;16.60;8.80;;;;;;;8.84;73.93;99659.59;218769;1256;140826;-69
2023/05/23 03:42:17;;;;;;;8.80;6.80;;;;;;;8.99;73.90;99654.46;219439;1256;139671;-69
2023/05/23 03:47:25;;;;;;;11.70;7.70;;;;;;;9.15;74.43;99652.33;218440;1256;139800;-69
2023/05/23 03:52:31;;;;;;;7.70;6.60;;;;;;;9.54;74.01;99650.56;218729;1257;140202;-68
2023/05/23 03:57:36;;;;;;;7.70;6.50;;;;;;;9.87;74.13;99647.58;219925;1255;141038;-67
2023/05/23 04:02:42;;;;;;;8.10;7.10;;;;;;;10.08;74.14;99645.31;219139;1256;139818;-67
2023/05/23 04:07:47;;;;;;;11.90;7.70;;;;;;;10.40;74.08;99640.95;220496;1256;141121;-68
2023/05/23 04:12:53;;;;;;;8.40;6.80;;;;;;;10.78;73.98;99639.40;219692;1256;140174;-67
2023/05/23 04:17:58;;;;;;;7.20;6.40;;;;;;;11.34;73.50;99635.14;219518;1256;140323;-68
2023/05/23 04:23:03;;;;;;;8.20;6.00;;;;;;;12.04;72.81;99635.12;218599;1256;140217;-67
2023/05/23 04:28:09;;;;;;;8.60;6.20;;;;;;;12.61;72.51;99635.98;218823;1260;139735;-66
2023/05/23 04:33:16;;;;;;;6.60;5.90;;;;;;;13.89;71.22;99629.12;218623;1260;140082;-68
2023/05/23 04:38:20;;;;;;;6.40;5.60;;;;;;;14.65;70.30;99631.52;218408;1257;140488;-68
2023/05/23 04:43:26;;;;;;;7.00;4.30;;;;;;;15.49;68.86;99626.68;218848;1256;140202;-68
2023/05/23 04:48:33;;;;;;;6.50;5.20;;;;;;;16.26;67.70;99627.31;219136;1256;140753;-69
2023/05/23 04:53:39;;;;;;;6.10;5.60;;;;;;;16.35;67.07;99629.88;218145;1257;141081;-69
2023/05/23 04:58:45;;;;;;;8.20;4.60;;;;;;;17.13;65.61;99622.35;218360;1256;142118;-71
2023/05/23 05:03:50;;;;;;;5.30;4.80;;;;;;;18.17;64.40;99619.54;218605;1256;140037;-68
2023/05/23 05:08:55;;;;;;;4.70;3.30;;;;;;;18.36;63.53;99619.15;217597;1257;139985;-68
2023/05/23 05:13:59;;;;;;;3.80;3.50;;;;;;;19.30;60.31;99617.65;218863;1256;140289;-68
2023/05/23 05:19:04;;;;;;;5.30;3.70;;;;;;;22.40;55.00;99612.27;217711;1257;139049;-70
2023/05/23 05:24:11;;;;;;;4.80;2.90;;;;;;;25.43;51.82;99608.91;218531;1256;138927;-67
2023/05/23 05:29:17;;;;;;;3.30;3.00;;;;;;;27.93;47.42;99605.60;217675;1260;139957;-69
2023/05/23 05:34:22;;;;;;;6.50;3.30;;;;;;;29.92;43.76;99605.15;218418;1255;139536;-68
2023/05/23 05:39:27;;;;;;;;;;;;;;;31.29;40.66;99598.72;218195;1257;139427;-68
2023/05/23 05:44:33;;;;;;;3.50;2.20;;;;;;;32.53;38.06;99603.77;219487;1256;125673;-68
2023/05/23 05:49:39;;;;;;;3.00;2.10;;;;;;;33.25;35.69;99602.63;219105;1255;139850;-68
2023/05/23 05:54:44;;;;;;;3.40;2.50;;;;;;;34.71;35.24;99598.72;220199;1256;138996;-70
2023/05/23 05:59:48;;;;;;;2.80;1.90;;;;;;;36.24;33.84;99590.77;220327;1256;141237;-68
2023/05/23 06:04:52;;;;;;;1.80;1.70;;;;;;;36.73;30.66;99587.66;218623;1257;139242;-68
2023/05/23 06:09:58;;;;;;;1.80;1.60;;;;;;;36.83;29.61;99581.52;220450;1256;139387;-67
2023/05/23 06:15:03;;;;;;;3.10;1.70;;;;;;;37.46;28.83;99582.67;220399;1256;139865;-68
2023/05/23 06:20:07;;;;;;;1.50;1.40;;;;;;;37.36;28.41;99582.09;219957;1256;139828;-68
2023/05/23 06:25:12;;;;;;;6.80;2.30;;;;;;;37.56;26.22;99584.83;218891;1256;139629;-67
2023/05/23 06:30:16;;;;;;;3.20;2.30;;;;;;;36.01;25.80;99578.96;219738;1256;140591;-68
2023/05/23 06:35:21;;;;;;;1.40;1.30;;;;;;;34.79;26.15;99573.23;219536;1256;140236;-67
2023/05/23 06:40:26;;;;;;;1.30;1.30;;;;;;;34.24;26.74;99574.80;218985;1256;139661;-66
2023/05/23 06:45:30;;;;;;;2.20;1.60;;;;;;;32.76;25.97;99570.52;219575;1256;139159;-67
2023/05/23 06:50:35;;;;;;;1.60;1.50;;;;;;;30.96;26.64;99567.00;217734;1258;139245;-67
2023/05/23 06:55:40;;;;;;;1.60;1.50;;;;;;;30.06;27.52;99555.00;218301;1260;140076;-67
2023/05/23 07:00:45;;;;;;;2.00;1.80;;;;;;;30.29;28.31;99548.60;217701;1257;139339;-68
2023/05/23 07:05:50;;;;;;;3.70;1.80;;;;;;;31.50;28.09;99543.29;218326;1256;139838;-67
2023/05/23 07:10:54;;;;;;;1.50;1.40;;;;;;;32.55;27.65;99539.95;218153;1257;141457;-66
2023/05/23 07:15:58;;;;;;;3.20;2.10;;;;;;;33.06;27.18;99533.38;218635;1256;139586;-69
2023/05/23 07:21:03;;;;;;;2.30;1.30;;;;;;;32.86;27.29;99531.97;218346;1256;139518;-67
2023/05/23 07:26:08;;;;;;;2.60;2.20;;;;;;;32.74;27.26;99527.81;218562;1256;139129;-66
2023/05/23 07:31:14;;;;;;;2.10;2.00;;;;;;;31.85;26.71;99520.87;218707;1256;140048;-66
2023/05/23 07:36:19;;;;;;;4.00;2.00;;;;;;;30.86;26.92;99516.43;218572;1256;139204;-71
2023/05/23 07:41:23;;;;;;;5.40;2.30;;;;;;;30.26;28.08;99517.07;219816;1256;140653;-67
2023/05/23 07:46:28;;;;;;;2.90;2.70;;;;;;;30.08;28.52;99515.39;218669;1256;139413;-67
2023/05/23 07:51:32;;;;;;;;;;;;;;;29.47;28.66;99510.45;218387;1260;139530;-68
2023/05/23 07:56:38;;;;;;;3.10;2.90;;;;;;;28.58;29.00;99511.93;218692;1257;125677;-68
2023/05/23 08:01:43;;;;;;;3.30;3.00;;;;;;;28.04;29.46;99511.73;218456;1256;139880;-68
2023/05/23 08:06:47;;;;;;;2.70;2.50;;;;;;;27.87;30.19;99508.93;220221;1256;140852;-68
2023/05/23 08:12:08;;;;;;;2.40;2.20;;;;;;;28.05;31.24;99500.82;220367;1256;139503;-70
2023/05/23 08:17:13;;;;;;;8.30;3.00;;;;;;;28.12;30.25;99500.75;220396;1256;140641;-67
2023/05/23 08:22:17;;;;;;;4.00;2.40;;;;;;;28.00;30.39;99496.56;219771;1256;139297;-71
2023/05/23 08:27:22;;;;;;;5.60;2.90;;;;;;;27.59;29.84;99498.55;220291;1256;139287;-73
2023/05/23 08:32:26;;;;;;;2.70;2.40;;;;;;;27.34;30.36;99495.39;218264;1256;140819;-70
2023/05/23 08:37:32;;;;;;;6.00;3.50;;;;;;;27.37;30.45;99485.92;219174;1257;140982;-69
2023/05/23 08:42:37;;;;;;;;;;;;;;;27.59;30.00;99488.46;218957;1256;139416;-69
2023/05/23 08:47:43;;;;;;;3.10;2.10;;;;;;;27.47;29.63;99493.54;218197;1256;127208;-70
2023/05/23 08:52:56;;;;;;;4.00;3.20;;;;;;;27.14;29.69;99491.36;218954;1256;139871;-70
2023/05/23 08:58:05;;;;;;;7.10;3.00;;;;;;;26.67;29.46;99492.77;218593;1256;139225;-71
2023/05/23 09:03:11;;;;;;;3.10;2.60;;;;;;;26.05;30.66;99486.88;219335;1256;139757;-71
2023/05/23 09:08:18;;;;;;;3.30;2.70;;;;;;;26.04;31.85;99482.55;217757;1257;139173;-70
2023/05/23 09:13:23;;;;;;;2.60;2.40;;;;;;;26.20;32.21;99482.80;218413;1260;140816;-70
2023/05/23 09:18:41;;;;;;;4.30;2.70;;;;;;;26.45;32.14;99479.64;217693;1257;139519;-69
2023/05/23 09:23:47;;;;;;;3.10;2.90;;;;;;;26.69;32.11;99481.66;218584;1256;140432;-70
2023/05/23 09:28:58;;;;;;;2.70;2.50;;;;;;;26.94;31.88;99474.39;218650;1256;139587;-71
2023/05/23 09:34:03;;;;;;;3.50;2.90;;;;;;;26.87;31.60;99480.22;218916;1256;140926;-70
2023/05/23 09:39:10;;;;;;;3.00;2.70;;;;;;;26.74;31.28;99473.23;218832;1256;140106;-68
2023/05/23 09:44:23;;;;;;;3.10;2.90;;;;;;;26.87;31.86;99477.33;218045;1260;139621;-67
2023/05/23 09:49:27;;;;;;;2.60;2.40;;;;;;;26.90;31.39;99475.16;219902;1256;139526;-67
2023/05/23 09:54:30;;;;;;;3.20;2.90;;;;;;;26.69;31.85;99469.71;218911;1256;139604;-68
2023/05/23 09:59:37;;;;;;;5.50;3.30;;;;;;;26.44;31.93;99470.02;218864;1257;139039;-69
2023/05/23 10:04:43;;;;;;;5.50;2.70;;;;;;;26.50;32.27;99462.71;219932;1256;139133;-66
2023/05/23 10:09:54;;;;;;;6.60;3.00;;;;;;;26.49;32.03;99459.39;220297;1256;139708;-71
2023/05/23 10:15:05;;;;;;;4.00;3.60;;;;;;;26.49;32.21;99459.00;219728;1256;140592;-73
2023/05/23 10:20:13;;;;;;;3.70;2.70;;;;;;;26.82;31.72;99447.11;220343;1256;140542;-69
2023/05/23 10:25:18;;;;;;;3.90;3.00;;;;;;;26.75;31.14;99441.05;219762;1256;139638;-69
2023/05/23 10:30:25;;;;;;;4.00;3.50;;;;;;;26.61;31.22;99435.19;218715;1257;139014;-70
2023/05/23 10:35:33;;;;;;;3.90;3.50;;;;;;;26.71;31.57;99435.23;219190;1256;139594;-69
2023/05/23 10:41:00;;;;;;;8.00;3.30;;;;;;;27.04;31.90;99438.10;218393;1257;139310;-67
2023/05/23 10:46:08;;;;;;;6.10;3.80;;;;;;;27.18;31.67;99441.59;217850;1257;139804;-70
2023/05/23 10:51:14;;;;;;;9.30;3.40;;;;;;;27.22;31.20;99431.42;218528;1256;140506;-68
2023/05/23 10:56:23;;;;;;;3.90;2.80;;;;;;;27.41;31.24;99426.23;217881;1257;139844;-69
2023/05/23 11:01:29;;;;;;;2.90;2.60;;;;;;;27.37;31.60;99427.52;218133;1257;139386;-69
2023/05/23 11:06:43;;;;;;;11.70;3.80;;;;;;;27.10;31.44;99423.31;217978;1257;141351;-69
2023/05/23 11:11:59;;;;;;;7.40;3.20;;;;;;;26.77;31.52;99419.86;218359;1259;139283;-68
2023/05/23 11:17:11;;;;;;;6.00;3.80;;;;;;;26.49;31.18;99411.04;218855;1259;139275;-68
2023/05/23 11:22:17;;;;;;;5.30;3.80;;;;;;;25.98;31.33;99413.45;218409;1257;139911;-68
2023/05/23 11:27:33;;;;;;;7.90;4.20;;;;;;;25.78;31.36;99408.80;217926;1256;140678;-69
2023/05/23 11:32:41;;;;;;;5.90;3.30;;;;;;;25.61;31.78;99408.11;217720;1257;139484;-69
2023/05/23 11:37:48;;;;;;;3.30;2.40;;;;;;;25.60;32.03;99408.00;218830;1255;139517;-68
2023/05/23 11:42:54;;;;;;;7.80;3.40;;;;;;;25.48;31.95;99408.69;218821;1259;232197;-69
2023/05/23 11:48:11;;;;;;;13.10;5.90;;;;;;;25.49;32.13;99402.25;218486;1257;139351;-68
2023/05/23 11:53:19;;;;;;;3.70;3.20;;;;;;;25.63;32.29;99401.30;219333;1256;141608;-70
2023/05/23 11:58:34;;;;;;;4.30;3.40;;;;;;;25.41;32.24;99401.29;218019;1257;139977;-68
2023/05/23 12:03:49;;;;;;;5.30;3.80;;;;;;;25.52;32.15;99398.52;218279;1257;162060;-69
2023/05/23 12:08:55;;;;;;;6.50;4.00;;;;;;;25.80;32.31;99393.11;219949;1256;139248;-68
2023/05/23 12:14:05;;;;;;;4.10;3.80;;;;;;;25.90;32.08;99395.83;219856;1257;139388;-69
2023/05/23 12:19:10;;;;;;;7.00;3.60;;;;;;;25.77;31.84;99396.98;219860;1256;139800;-70
2023/05/23 12:24:20;;;;;;;3.90;3.60;;;;;;;25.59;31.70;99393.30;220339;1258;139288;-70
2023/05/23 12:29:30;;;;;;;5.90;3.80;;;;;;;25.49;31.98;99386.42;219147;1257;139598;-70
2023/05/23 12:34:43;;;;;;;6.40;4.60;;;;;;;25.38;31.86;99384.44;219424;1257;141019;-71
2023/05/23 12:39:47;;;;;;;6.50;3.60;;;;;;;25.29;32.22;99383.92;219754;1257;139207;-73
2023/05/23 12:44:53;;;;;;;5.00;4.50;;;;;;;25.39;31.93;99375.11;218606;1256;152529;-71
2023/05/23 12:49:56;;;;;;;4.60;4.20;;;;;;;25.73;32.30;99377.05;218017;1257;140531;-71
2023/05/23 12:55:00;;;;;;;9.50;5.40;;;;;;;25.68;32.09;99369.71;218876;1257;139476;-69
2023/05/23 13:00:07;;;;;;;10.10;6.90;;;;;;;25.44;32.72;99366.05;217883;1257;140667;-69
2023/05/23 13:05:12;;;;;;;6.30;4.60;;;;;;;25.22;32.67;99367.08;218139;1257;139658;-69
2023/05/23 13:10:18;;;;;;;9.90;5.20;;;;;;;25.06;33.46;99365.33;218338;1260;151959;-69
2023/05/23 13:15:23;;;;;;;7.10;5.00;;;;;;;25.07;33.44;99365.77;218319;1256;139016;-69
2023/05/23 13:20:29;;;;;;;57.40;17.20;;;;;;;25.18;33.57;99355.42;217823;1262;139283;-70
2023/05/23 13:25:34;;;;;;;5.40;4.70;;;;;;;25.14;34.14;99353.35;219745;1256;141162;-70
2023/05/23 13:30:38;;;;;;;5.70;4.90;;;;;;;25.13;33.49;99358.46;218780;1257;140162;-70
2023/05/23 13:35:43;;;;;;;18.70;6.80;;;;;;;25.17;33.77;99352.27;218146;1257;139435;-71
2023/05/23 13:40:50;;;;;;;6.70;6.00;;;;;;;25.34;34.36;99355.48;218421;1257;140096;-70
2023/05/23 13:45:57;;;;;;;11.10;5.80;;;;;;;25.53;33.77;99351.15;218168;1260;139744;-70
2023/05/23 13:51:03;;;;;;;42.60;30.20;;;;;;;25.84;33.89;99346.89;219496;1257;140630;-70
2023/05/23 13:56:11;;;;;;;14.00;8.50;;;;;;;26.08;33.51;99338.29;217500;1257;139385;-69
2023/05/23 14:01:17;;;;;;;26.60;11.50;;;;;;;26.27;32.81;99330.63;219599;1257;140219;-72
2023/05/23 14:06:22;;;;;;;7.60;6.40;;;;;;;26.36;32.71;99329.86;220331;1260;141056;-70
2023/05/23 14:11:28;;;;;;;8.90;7.70;;;;;;;26.00;32.09;99329.25;219535;1257;140211;-69
2023/05/23 14:16:34;;;;;;;9.80;6.10;;;;;;;25.70;32.28;99321.05;220325;1257;140710;-68
2023/05/23 14:21:42;;;;;;;7.00;6.20;;;;;;;25.69;31.96;99316.55;220029;1257;139601;-79
2023/05/23 14:26:48;;;;;;;10.00;6.30;;;;;;;25.74;32.06;99320.77;218482;1257;139566;-77
2023/05/23 14:31:52;;;;;;;11.30;6.20;;;;;;;25.67;31.92;99324.61;218120;1257;140319;-75
2023/05/23 14:36:57;;;;;;;7.40;5.40;;;;;;;25.69;32.67;99324.30;219376;1257;140221;-77
2023/05/23 14:42:03;;;;;;;8.40;6.30;;;;;;;25.65;32.44;99318.27;219005;1257;139869;-77
2023/05/23 14:47:07;;;;;;;7.90;6.10;;;;;;;25.66;32.75;99315.86;218615;1257;139721;-71
2023/05/23 14:52:11;;;;;;;9.30;5.80;;;;;;;25.50;32.36;99314.34;217915;1257;139816;-70
2023/05/23 14:57:16;;;;;;;41.40;19.80;;;;;;;25.48;32.15;99319.02;218226;1257;139497;-70
2023/05/23 15:02:20;;;;;;;15.20;9.10;;;;;;;25.40;32.61;99314.71;218463;1257;142399;-69
2023/05/23 15:07:26;;;;;;;6.40;5.60;;;;;;;25.37;32.97;99317.61;217588;1262;139657;-68
2023/05/23 15:12:33;;;;;;;8.70;5.80;;;;;;;25.23;33.09;99320.67;218467;1257;140056;-70
2023/05/23 15:17:37;;;;;;;7.10;6.10;;;;;;;25.07;33.18;99319.15;218446;1260;140429;-80
2023/05/23 15:22:43;;;;;;;14.10;6.40;;;;;;;24.92;33.51;99318.96;217339;1257;727395;-81
2023/05/23 15:27:48;;;;;;;;;;;;;;;24.85;34.28;99317.53;218580;1256;139668;-79
2023/05/23 15:32:52;;;;;;;8.80;6.50;;;;;;;24.73;34.42;99313.59;218931;1257;126246;-78
2023/05/23 15:38:00;;;;;;;15.70;9.40;;;;;;;24.74;34.73;99309.09;218595;1260;139178;-84
2023/05/23 15:43:05;;;;;;;39.20;15.50;;;;;;;24.60;34.57;99307.98;218112;1257;139117;-70
2023/05/23 15:48:11;;;;;;;20.60;11.60;;;;;;;24.39;34.98;99307.74;219167;1257;140802;-72
2023/05/23 15:53:16;;;;;;;13.70;8.10;;;;;;;24.28;36.54;99305.89;219477;1258;139469;-72
2023/05/23 15:58:21;;;;;;;30.80;15.70;;;;;;;24.10;36.50;99305.45;219501;1256;140452;-68
2023/05/23 16:03:33;;;;;;;27.80;12.10;;;;;;;24.01;37.15;99296.65;220230;1257;140708;-67
2023/05/23 16:08:38;;;;;;;15.50;9.80;;;;;;;23.91;36.85;99291.38;220466;1257;140285;-68
2023/05/23 16:13:42;;;;;;;8.40;7.20;;;;;;;23.81;36.89;99290.58;220365;1260;140071;-67
2023/05/23 16:18:47;;;;;;;6.10;5.30;;;;;;;23.77;37.10;99298.88;218739;1260;139167;-71
2023/05/23 16:23:52;;;;;;;11.90;5.70;;;;;;;23.72;37.37;99299.96;217506;1257;139892;-76
2023/05/23 16:28:57;;;;;;;6.00;5.00;;;;;;;23.64;37.47;99299.95;219291;1256;140381;-69
2023/05/23 16:34:03;;;;;;;;;;;;;;;23.59;37.76;99302.07;218810;1257;140027;-73
2023/05/23 16:39:08;;;;;;;4.90;4.40;;;;;;;23.48;38.26;99303.55;218567;1260;126732;-75
2023/05/23 16:44:13;;;;;;;7.70;4.70;;;;;;;23.44;38.86;99299.64;218235;1261;139779;-78
2023/05/23 16:49:16;;;;;;;9.40;4.90;;;;;;;23.34;38.53;99293.95;217991;1260;139972;-72
2023/05/23 16:54:21;;;;;;;7.70;5.60;;;;;;;23.22;39.13;99294.52;218720;1257;139070;-73
2023/05/23 16:59:25;;;;;;;7.60;5.50;;;;;;;23.09;39.16;99290.17;218410;1260;164282;-78
2023/05/23 17:04:31;;;;;;;5.60;4.50;;;;;;;22.94;39.67;99293.39;218957;1260;244953;-73
2023/05/23 17:09:37;;;;;;;11.40;4.90;;;;;;;22.79;40.30;99293.48;218052;1258;139550;-76
2023/05/23 17:14:41;;;;;;;12.70;5.00;;;;;;;22.67;40.56;99296.76;218469;1258;141632;-68
2023/05/23 17:19:48;;;;;;;6.40;4.70;;;;;;;22.54;41.04;99295.50;218956;1256;141124;-78
2023/05/23 17:24:54;;;;;;;19.20;5.50;;;;;;;22.39;41.24;99302.59;218438;1257;138985;-73
2023/05/23 17:30:03;;;;;;;8.40;5.50;;;;;;;22.26;41.86;99298.38;218830;1256;141650;-74
2023/05/23 17:35:09;;;;;;;10.00;5.00;;;;;;;22.10;42.36;99297.66;217782;1260;138826;-72
2023/05/23 17:40:15;;;;;;;10.90;5.00;;;;;;;21.96;42.95;99298.48;219424;1260;140162;-73
2023/05/23 17:45:21;;;;;;;5.20;4.30;;;;;;;21.74;43.63;99299.48;218160;1257;138704;-70
2023/05/23 17:50:25;;;;;;;7.30;3.90;;;;;;;21.55;44.09;99301.30;219676;1260;140256;-74
2023/05/23 17:55:34;;;;;;;7.00;4.30;;;;;;;21.38;44.72;99302.21;217992;1258;139954;-74
2023/05/23 18:01:13;;;;;;;8.70;4.90;;;;;;;21.22;44.86;99305.73;218897;1257;139847;-74
2023/05/23 18:06:18;;;;;;;5.80;4.30;;;;;;;21.08;45.46;99309.77;220320;1257;139585;-74
2023/05/23 18:11:24;;;;;;;11.40;4.50;;;;;;;20.95;45.90;99308.67;220530;1257;139356;-73
2023/05/23 18:16:31;;;;;;;13.70;5.10;;;;;;;20.84;46.68;99314.27;220278;1257;140250;-74
2023/05/23 18:21:36;;;;;;;6.20;4.60;;;;;;;20.74;47.33;99313.37;220119;1257;140041;-74
2023/05/23 18:26:43;;;;;;;7.90;5.50;;;;;;;20.64;47.35;99314.02;218574;1258;139306;-73
2023/05/23 18:31:51;;;;;;;9.10;5.70;;;;;;;20.52;47.92;99325.73;218515;1257;140784;-72
2023/05/23 18:36:56;;;;;;;;;;;;;;;20.40;48.38;99328.48;217914;1257;140168;-72
2023/05/23 18:42:03;;;;;;;11.80;5.50;;;;;;;20.27;49.00;99330.04;217957;1260;126200;-73
2023/05/23 18:47:07;;;;;;;14.20;6.20;;;;;;;20.15;49.30;99327.84;218137;1257;140274;-73
2023/05/23 18:52:12;;;;;;;9.50;5.90;;;;;;;20.02;49.48;99335.23;217754;1258;139798;-73
2023/05/23 18:57:19;;;;;;;10.40;7.50;;;;;;;19.89;49.78;99345.55;218652;1257;140393;-73
2023/05/23 19:02:25;;;;;;;10.10;5.80;;;;;;;19.80;50.35;99359.22;217556;1260;140208;-75
2023/05/23 19:07:31;;;;;;;12.70;6.40;;;;;;;19.70;50.78;99364.46;219016;1257;139915;-72
2023/05/23 19:12:38;;;;;;;18.80;5.70;;;;;;;19.58;51.02;99371.15;218056;1257;140579;-72
2023/05/23 19:17:43;;;;;;;7.60;5.70;;;;;;;19.48;51.14;99376.27;218302;1257;139520;-71
2023/05/23 19:22:49;;;;;;;8.70;6.50;;;;;;;19.39;52.07;99376.88;217551;1259;140231;-72
2023/05/23 19:27:56;;;;;;;;;;;;;;;19.29;52.97;99374.69;219090;1256;140108;-73
2023/05/23 19:33:04;;;;;;;10.60;6.30;;;;;;;19.08;53.28;99373.48;218268;1258;126421;-71
2023/05/23 19:38:11;;;;;;;9.40;7.00;;;;;;;18.89;53.87;99379.95;218840;1257;139686;-70
2023/05/23 19:43:16;;;;;;;13.30;7.80;;;;;;;18.78;54.50;99384.13;218584;1257;139335;-70
2023/05/23 19:48:21;;;;;;;11.00;7.40;;;;;;;18.68;54.73;99383.29;217792;1258;139038;-71
2023/05/23 19:53:27;;;;;;;13.20;6.60;;;;;;;18.54;55.30;99383.13;217761;1258;140170;-71
2023/05/23 19:58:35;;;;;;;7.90;7.00;;;;;;;18.38;55.96;99379.48;218110;1256;140061;-72
2023/05/23 20:03:41;;;;;;;8.90;7.30;;;;;;;18.28;56.65;99375.40;218976;1257;139596;-70
2023/05/23 20:08:46;;;;;;;7.00;6.40;;;;;;;18.22;57.04;99373.98;219566;1257;139443;-70
2023/05/23 20:13:52;;;;;;;8.00;7.10;;;;;;;18.18;57.59;99370.80;218955;1257;139770;-70
2023/05/23 20:18:58;;;;;;;8.00;6.00;;;;;;;18.15;57.81;99378.45;219596;1257;139795;-71
2023/05/23 20:24:03;;;;;;;11.70;5.70;;;;;;;18.11;56.70;99378.84;218995;1257;139921;-70
2023/05/23 20:29:11;;;;;;;6.20;5.60;;;;;;;18.07;56.80;99385.08;218973;1256;139939;-69
2023/05/23 20:34:14;;;;;;;7.90;6.50;;;;;;;18.08;57.06;99388.05;218065;1257;139579;-69
2023/05/23 20:39:22;;;;;;;7.60;6.40;;;;;;;18.12;57.20;99398.02;218710;1256;139087;-69
2023/05/23 20:44:28;;;;;;;8.20;6.80;;;;;;;18.13;57.89;99402.86;218681;1256;139507;-69
2023/05/23 20:49:36;;;;;;;8.20;7.40;;;;;;;18.09;58.01;99406.64;219188;1257;140131;-69
2023/05/23 20:54:41;;;;;;;10.90;6.90;;;;;;;18.05;58.33;99413.39;218247;1257;139673;-70
2023/05/23 20:59:48;;;;;;;8.30;7.60;;;;;;;17.96;58.19;99419.47;218303;1256;139839;-73
2023/05/23 21:04:54;;;;;;;9.90;7.50;;;;;;;17.90;58.30;99428.50;218001;1256;139544;-70
2023/05/23 21:09:59;;;;;;;13.20;9.20;;;;;;;17.87;58.64;99428.58;218355;1256;139764;-72
2023/05/23 21:15:10;;;;;;;12.60;8.70;;;;;;;17.85;59.01;99428.55;218008;1259;139339;-71
2023/05/23 21:20:15;;;;;;;11.30;8.10;;;;;;;17.82;59.30;99431.45;218311;1257;139413;-71
2023/05/23 21:25:21;;;;;;;10.50;9.40;;;;;;;17.78;59.68;99427.01;218289;1259;139686;-71
2023/05/23 21:30:24;;;;;;;10.90;9.10;;;;;;;17.74;60.04;99426.21;219572;1255;140451;-72
2023/05/23 21:35:30;;;;;;;11.10;10.10;;;;;;;17.72;60.44;99425.22;219027;1256;139478;-70
2023/05/23 21:40:36;;;;;;;11.60;8.70;;;;;;;17.69;60.88;99422.35;218046;1257;140386;-70
2023/05/23 21:45:40;;;;;;;10.60;9.20;;;;;;;17.58;61.25;99426.50;218434;1256;141126;-71
2023/05/23 21:50:45;;;;;;;10.60;9.40;;;;;;;17.53;61.90;99424.50;219278;1256;139565;-72
2023/05/23 21:55:50;;;;;;;16.90;10.20;;;;;;;17.42;62.17;99427.75;220321;1256;141080;-71
2023/05/23 22:00:55;;;;;;;14.10;9.50;;;;;;;17.33;62.57;99428.30;220457;1256;140559;-72
2023/05/23 22:06:00;;;;;;;13.60;11.50;;;;;;;17.34;62.87;99429.47;219501;1256;140839;-72
2023/05/23 22:11:09;;;;;;;19.20;13.50;;;;;;;17.35;63.07;99432.85;219879;1256;141163;-70
2023/05/23 22:16:14;;;;;;;11.00;9.20;;;;;;;17.33;63.35;99435.63;219341;1256;140540;-71
2023/05/23 22:21:20;;;;;;;17.30;11.50;;;;;;;17.31;63.79;99436.73;220407;1256;141025;-71
2023/05/23 22:26:24;;;;;;;12.80;10.60;;;;;;;17.31;64.02;99437.00;218759;1256;139936;-68
2023/05/23 22:31:29;;;;;;;15.70;10.70;;;;;;;17.30;64.37;99436.03;219205;1257;140214;-70
2023/05/23 22:36:35;;;;;;;11.70;9.80;;;;;;;17.26;64.65;99435.43;218462;1257;140627;-70
2023/05/23 22:41:41;;;;;;;10.80;9.70;;;;;;;17.20;64.97;99435.05;219120;1259;140698;-70
2023/05/23 22:46:46;;;;;;;17.00;11.20;;;;;;;17.11;65.20;99432.13;218543;1256;140450;-72
2023/05/23 22:51:51;;;;;;;11.20;10.10;;;;;;;17.07;65.31;99433.04;218958;1255;140619;-72
2023/05/23 22:56:57;;;;;;;13.50;11.10;;;;;;;17.04;65.33;99433.50;218156;1257;141006;-72
2023/05/23 23:02:05;;;;;;;17.40;11.00;;;;;;;17.00;65.65;99435.10;219360;1255;139981;-73
2023/05/23 23:07:10;;;;;;;13.40;11.60;;;;;;;16.98;65.60;99429.95;217882;1257;140740;-72
2023/05/23 23:12:16;;;;;;;18.80;11.80;;;;;;;16.98;65.80;99424.35;219600;1256;140359;-71
2023/05/23 23:17:21;;;;;;;15.70;12.70;;;;;;;16.98;65.90;99416.16;217829;1256;141205;-70
2023/05/23 23:22:26;;;;;;;13.60;11.50;;;;;;;16.96;66.10;99415.70;218735;1256;140084;-70
2023/05/23 23:27:31;;;;;;;15.20;10.20;;;;;;;16.92;66.23;99419.77;218782;1256;248747;-70